Ostseebad Dierhagen, Germany

7:06 AM CEST on July 24, 2017 (GMT +0200)
Lange Straße | | Change Station

Elev 16 ft 54.24 °N, 12.43 °E | Updated 4 minutes ago

Mostly Cloudy
Mostly Cloudy
55.0 °F
Feels Like 55.0 °F
N
1.2
Wind Variable Wind from East
Gusts 2.5 mph

Today
High -- | Low -- °F
--% Chance of Precip.
Yesterday
High -- | Low -- °F
Precip. -- in
Pressure 29.83 in
Visibility 6.2 miles
Clouds Few 10000 ft
Scattered Clouds 26000 ft
Mostly Cloudy 30000 ft
Dew Point 54 °F
Humidity 95%
Rainfall 0.00 in
Snow Depth Not available.
5:09 AM 9:23 PM
New Moon, 1% visible
METAR ETNL 240420Z 07001KT 9999 VCFG FEW100 SCT260 BKN300 13/12 Q1010 BLU+BLU+
Pressure 29.83 in
Visibility 6.2 miles
Clouds Few 10000 ft
Scattered Clouds 26000 ft
Mostly Cloudy 30000 ft
Dew Point 54 °F
Humidity 95%
Rainfall 0.00 in
Snow Depth Not available.
5:09 AM 9:23 PM
New Moon, 1% visible
METAR ETNL 240420Z 07001KT 9999 VCFG FEW100 SCT260 BKN300 13/12 Q1010 BLU+BLU+

Get Severe Weather Alerts

Thanks for signing up!

Be on the lookout for a verification email in your inbox.

You'll start receiving the daily forecast at 6 AM.

×

10-Day Weather Forecast

×

Almanac

Astronomy

Jul. 24, 2017 Rise Set
Actual Time
Civil Twilight
Nautical Twilight
Astronomical Twilight
Moon
Length of Visible Light
Length of Day
Tomorrow will be .
, % of the Moon is Illuminated

Today's Extremes

Country Highs Country Lows

Community

WunderPhotos

Category 6

Welcome to Category 6. This is the collective home for Weather Underground's featured writeups by Dr. Jeff Masters (right), Bob Henson (left), Chris Burt, and other regular contributors.

Nearby

Air Quality

  Air Quality AQ Index Pollutant
Not available.

Snow Depth

Station Depth Elevation

Earthquake Activity

City Distance Mag. Time & Date
Minimum magnitude displayed is 2.5.

Coastal Water Temperatures

Place Temperature

Stations

Nearby Weather Stations

Station Location Temp. Windchill Dew Point Humidity Wind Precip. Elev Updated Type